FME weather

Tipton Airport
Fort Meade(Odenton), Maryland, United States

Public forecast

Using degrees Fahrenheit for public forecast. Weather courtesy of forecast.io.

METAR (pilot weather report)

Retrieved 2019/09/15 06:42 UTC (12 minutes ago):

KFME 150642Z AUTO 00000KT 10SM SCT038 OVC050 21/20 A3018 RMK AO1

TAF (pilot weather forecast)

Closest forecast is Baltimore/Washington International Thurgood Marshall Airport, 6.9 nm (12.7 km) NE. Retrieved 2019/09/15 06:28 UTC (26 minutes ago):

TAF KBWI 150526Z 1506/1612 VRB03KT P6SM SCT025 BKN050 FM150900 31004KT P6SM BKN015 BKN025 FM151200 34005KT P6SM SCT025 BKN040 FM151600 35006KT P6SM FEW100 SCT110